Time;durP1;ratioP1;P1;durP2;ratioP2;P2;SDS_P1;SDS_P2;PMS_P1;PMS_P2;Temp;Humidity;BMP_temperature;BMP_pressure;BME280_temperature;BME280_humidity;BME280_pressure;Samples;Min_cycle;Max_cycle;Signal;HPM_P1;HPM_P2
2023/09/07 00:01:07;;;;;;;4.18;2.60;;;;;;;;;;5100446;28;20224;-74
2023/09/07 00:03:39;;;;;;;5.67;3.37;;;;;;;;;;5100130;28;20236;-74
2023/09/07 00:06:08;;;;;;;5.30;2.60;;;;;;;;;;5100155;28;20205;-74
2023/09/07 00:08:36;;;;;;;3.70;2.80;;;;;;;;;;5100319;28;20216;-74
2023/09/07 00:11:04;;;;;;;3.30;2.87;;;;;;;;;;5100325;28;20288;-74
2023/09/07 00:13:32;;;;;;;7.13;2.63;;;;;;;;;;5099991;28;20230;-74
2023/09/07 00:16:01;;;;;;;4.20;2.80;;;;;;;;;;5100203;28;20261;-74
2023/09/07 00:18:29;;;;;;;4.43;2.80;;;;;;;;;;5099954;28;20219;-74
2023/09/07 00:20:58;;;;;;;2.70;2.43;;;;;;;;;;5100189;28;20242;-74
2023/09/07 00:23:27;;;;;;;5.27;2.40;;;;;;;;;;5099906;28;20215;-74
2023/09/07 00:25:55;;;;;;;3.63;2.80;;;;;;;;;;5099991;28;20246;-74
2023/09/07 00:28:23;;;;;;;3.47;2.63;;;;;;;;;;5099957;28;20205;-74
2023/09/07 00:30:51;;;;;;;5.38;2.90;;;;;;;;;;5099632;28;20649;-73
2023/09/07 00:33:19;;;;;;;3.47;2.67;;;;;;;;;;5099570;28;20282;-74
2023/09/07 00:35:47;;;;;;;5.23;2.90;;;;;;;;;;5099582;28;20672;-74
2023/09/07 00:38:15;;;;;;;5.90;2.90;;;;;;;;;;5099441;28;20210;-73
2023/09/07 00:40:45;;;;;;;10.80;2.80;;;;;;;;;;5099325;28;20223;-73
2023/09/07 00:43:13;;;;;;;5.43;2.73;;;;;;;;;;5099732;28;20199;-73
2023/09/07 00:45:41;;;;;;;4.17;2.80;;;;;;;;;;5098926;28;20661;-75
2023/09/07 00:48:10;;;;;;;2.70;2.50;;;;;;;;;;5099177;28;20203;-73
2023/09/07 00:50:38;;;;;;;3.67;2.50;;;;;;;;;;5099501;28;20237;-73
2023/09/07 00:53:06;;;;;;;5.73;2.47;;;;;;;;;;5099446;28;20238;-73
2023/09/07 00:55:34;;;;;;;4.13;2.57;;;;;;;;;;5099644;28;20209;-74
2023/09/07 00:58:05;;;;;;;4.90;3.20;;;;;;;;;;5099096;28;20241;-73
2023/09/07 01:00:33;;;;;;;5.07;2.63;;;;;;;;;;5099328;28;20228;-73
2023/09/07 01:03:01;;;;;;;3.53;2.67;;;;;;;;;;5099061;28;20205;-73
2023/09/07 01:05:33;;;;;;;3.00;2.70;;;;;;;;;;5099121;28;20680;-74
2023/09/07 01:08:05;;;;;;;3.00;2.70;;;;;;;;;;5098856;28;20216;-74
2023/09/07 01:10:33;;;;;;;3.23;2.60;;;;;;;;;;5098902;28;20230;-75
2023/09/07 01:13:01;;;;;;;3.33;2.53;;;;;;;;;;5098841;28;20243;-73
2023/09/07 01:15:30;;;;;;;3.93;2.53;;;;;;;;;;5098981;28;20211;-75
2023/09/07 01:17:59;;;;;;;3.00;2.53;;;;;;;;;;5098712;28;20214;-74
2023/09/07 01:20:41;;;;;;;4.70;2.70;;;;;;;;;;5098743;28;20284;-74
2023/09/07 01:23:12;;;;;;;4.00;3.00;;;;;;;;;;5098564;28;20211;-73
2023/09/07 01:25:43;;;;;;;4.00;2.70;;;;;;;;;;5098948;28;20211;-75
2023/09/07 01:28:11;;;;;;;3.30;3.00;;;;;;;;;;5098778;28;20236;-74
2023/09/07 01:30:41;;;;;;;5.27;2.90;;;;;;;;;;5098640;28;20228;-74
2023/09/07 01:33:09;;;;;;;3.13;2.83;;;;;;;;;;5098491;28;20233;-73
2023/09/07 01:35:38;;;;;;;4.10;2.50;;;;;;;;;;5098813;28;20207;-74
2023/09/07 01:38:06;;;;;;;3.33;2.50;;;;;;;;;;5098695;28;20241;-74
2023/09/07 01:40:35;;;;;;;3.87;2.50;;;;;;;;;;5098133;28;20624;-74
2023/09/07 01:43:04;;;;;;;5.27;2.73;;;;;;;;;;5098392;28;20550;-75
2023/09/07 01:45:32;;;;;;;4.00;2.50;;;;;;;;;;5098312;28;20290;-73
2023/09/07 01:48:00;;;;;;;2.70;2.10;;;;;;;;;;5098425;28;20209;-73
2023/09/07 01:50:28;;;;;;;2.40;2.20;;;;;;;;;;5098409;28;20242;-74
2023/09/07 01:52:56;;;;;;;4.20;2.80;;;;;;;;;;5098013;28;20224;-73
2023/09/07 01:55:24;;;;;;;3.57;2.70;;;;;;;;;;5098350;28;20209;-72
2023/09/07 01:57:54;;;;;;;3.07;2.53;;;;;;;;;;5097252;28;20244;-74
2023/09/07 02:00:22;;;;;;;3.17;2.67;;;;;;;;;;5098415;28;20233;-74
2023/09/07 02:02:50;;;;;;;5.53;2.90;;;;;;;;;;5097972;28;20205;-73
2023/09/07 02:05:18;;;;;;;3.00;2.70;;;;;;;;;;5098119;28;20548;-73
2023/09/07 02:07:49;;;;;;;2.27;2.17;;;;;;;;;;5097977;28;20662;-73
2023/09/07 02:10:18;;;;;;;3.37;2.63;;;;;;;;;;5097867;28;20250;-74
2023/09/07 02:12:46;;;;;;;2.30;2.10;;;;;;;;;;5097904;28;20228;-74
2023/09/07 02:15:16;;;;;;;4.00;2.33;;;;;;;;;;5098146;28;20216;-73
2023/09/07 02:17:44;;;;;;;2.70;2.50;;;;;;;;;;5097550;28;20214;-73
2023/09/07 02:20:13;;;;;;;4.10;2.20;;;;;;;;;;5097930;28;20226;-75
2023/09/07 02:22:41;;;;;;;3.90;3.60;;;;;;;;;;5097770;28;20210;-74
2023/09/07 02:25:09;;;;;;;3.37;2.50;;;;;;;;;;5097909;28;20219;-74
2023/09/07 02:27:37;;;;;;;4.50;2.77;;;;;;;;;;5097823;28;20220;-73
2023/09/07 02:30:05;;;;;;;3.00;2.70;;;;;;;;;;5097695;28;20229;-74
2023/09/07 02:32:38;;;;;;;4.53;2.40;;;;;;;;;;5097357;28;20349;-74
2023/09/07 02:35:08;;;;;;;5.43;2.33;;;;;;;;;;5097683;28;20208;-73
2023/09/07 02:37:36;;;;;;;2.97;2.30;;;;;;;;;;5098014;28;20216;-74
2023/09/07 02:40:08;;;;;;;5.97;3.27;;;;;;;;;;5097401;28;20587;-74
2023/09/07 02:42:36;;;;;;;4.80;2.67;;;;;;;;;;5085315;28;20214;-73
2023/09/07 02:45:07;;;;;;;4.27;2.47;;;;;;;;;;5097568;28;20667;-74
2023/09/07 02:47:35;;;;;;;2.87;2.33;;;;;;;;;;5097370;28;20243;-74
2023/09/07 02:50:05;;;;;;;4.40;2.47;;;;;;;;;;5097478;28;20722;-73
2023/09/07 02:52:33;;;;;;;4.13;2.73;;;;;;;;;;5098084;28;20209;-72
2023/09/07 02:55:02;;;;;;;2.43;2.13;;;;;;;;;;5097594;28;20222;-74
2023/09/07 02:57:29;;;;;;;3.37;2.43;;;;;;;;;;5097497;28;20284;-74
2023/09/07 02:59:57;;;;;;;3.40;2.40;;;;;;;;;;5097603;28;20232;-74
2023/09/07 03:02:25;;;;;;;3.13;2.90;;;;;;;;;;5097460;28;20211;-74
2023/09/07 03:04:54;;;;;;;2.40;2.20;;;;;;;;;;5097561;28;20287;-74
2023/09/07 03:07:24;;;;;;;2.67;2.33;;;;;;;;;;5097644;28;20258;-73
2023/09/07 03:09:52;;;;;;;2.73;2.37;;;;;;;;;;5100206;28;20218;-74
2023/09/07 03:12:20;;;;;;;6.53;2.77;;;;;;;;;;5101318;28;20208;-73
2023/09/07 03:14:50;;;;;;;3.60;2.60;;;;;;;;;;5101025;28;20227;-74
2023/09/07 03:17:18;;;;;;;3.67;2.67;;;;;;;;;;5101349;28;20208;-74
2023/09/07 03:19:46;;;;;;;2.40;2.20;;;;;;;;;;5101207;28;20242;-73
2023/09/07 03:22:14;;;;;;;4.07;2.23;;;;;;;;;;5101333;28;20221;-75
2023/09/07 03:24:44;;;;;;;4.17;2.30;;;;;;;;;;5101063;28;20204;-75
2023/09/07 03:27:12;;;;;;;3.57;2.47;;;;;;;;;;5100981;28;20568;-74
2023/09/07 03:29:40;;;;;;;2.53;2.33;;;;;;;;;;5100964;28;20205;-74
2023/09/07 03:32:08;;;;;;;5.43;2.27;;;;;;;;;;5100782;28;20651;-75
2023/09/07 03:34:36;;;;;;;3.43;2.50;;;;;;;;;;5100776;28;20267;-75
2023/09/07 03:37:06;;;;;;;4.37;2.60;;;;;;;;;;5100743;28;20268;-75
2023/09/07 03:39:34;;;;;;;4.03;2.50;;;;;;;;;;5100467;28;20230;-73
2023/09/07 03:42:03;;;;;;;3.83;2.53;;;;;;;;;;5100650;28;20254;-74
2023/09/07 03:44:31;;;;;;;3.20;2.20;;;;;;;;;;5100821;28;20202;-74
2023/09/07 03:47:01;;;;;;;2.90;2.40;;;;;;;;;;5100552;28;20216;-73
2023/09/07 03:49:29;;;;;;;3.87;2.17;;;;;;;;;;5100527;28;20224;-73
2023/09/07 03:51:57;;;;;;;3.80;2.63;;;;;;;;;;5100643;28;20224;-75
2023/09/07 03:54:25;;;;;;;2.43;2.23;;;;;;;;;;5100154;28;20691;-74
2023/09/07 03:56:53;;;;;;;3.07;2.30;;;;;;;;;;5100158;28;20248;-73
2023/09/07 03:59:23;;;;;;;3.47;2.30;;;;;;;;;;5100507;28;20212;-74
2023/09/07 04:01:51;;;;;;;2.83;2.23;;;;;;;;;;5100402;28;20264;-74
2023/09/07 04:04:19;;;;;;;3.70;2.20;;;;;;;;;;5100227;28;20202;-74
2023/09/07 04:06:48;;;;;;;3.40;2.30;;;;;;;;;;5100432;28;20211;-74
2023/09/07 04:09:16;;;;;;;4.47;2.60;;;;;;;;;;5100315;28;20211;-74
2023/09/07 04:11:44;;;;;;;2.53;2.33;;;;;;;;;;5100234;28;20310;-74
2023/09/07 04:14:12;;;;;;;3.63;2.17;;;;;;;;;;5099884;28;20231;-74
2023/09/07 04:16:41;;;;;;;4.87;2.57;;;;;;;;;;5100206;28;20210;-74
2023/09/07 04:19:11;;;;;;;3.00;2.60;;;;;;;;;;5099757;28;20610;-74
2023/09/07 04:21:39;;;;;;;3.77;2.50;;;;;;;;;;5096521;28;20313;-74
2023/09/07 04:24:08;;;;;;;3.67;2.07;;;;;;;;;;5099680;28;20611;-74
2023/09/07 04:26:38;;;;;;;2.57;2.20;;;;;;;;;;5100231;28;20642;-73
2023/09/07 04:29:07;;;;;;;2.63;2.27;;;;;;;;;;5100451;28;20201;-74
2023/09/07 04:31:36;;;;;;;2.53;2.20;;;;;;;;;;5099499;28;20313;-74
2023/09/07 04:34:05;;;;;;;4.53;2.40;;;;;;;;;;5099447;28;20221;-74
2023/09/07 04:36:34;;;;;;;4.67;2.43;;;;;;;;;;5099772;28;20214;-74
2023/09/07 04:39:03;;;;;;;4.03;2.50;;;;;;;;;;5097270;28;20199;-74
2023/09/07 04:41:31;;;;;;;4.07;2.27;;;;;;;;;;5096913;28;20232;-74
2023/09/07 04:43:59;;;;;;;2.60;2.13;;;;;;;;;;5099641;28;20263;-74
2023/09/07 04:46:27;;;;;;;2.60;2.40;;;;;;;;;;5099332;28;20284;-73
2023/09/07 04:48:55;;;;;;;3.77;2.67;;;;;;;;;;5099286;28;20211;-73
2023/09/07 04:51:26;;;;;;;2.87;2.57;;;;;;;;;;5099173;28;20230;-73
2023/09/07 04:53:54;;;;;;;2.57;2.37;;;;;;;;;;5099015;28;20213;-74
2023/09/07 04:56:22;;;;;;;2.93;2.20;;;;;;;;;;5099172;28;20235;-73
2023/09/07 04:58:50;;;;;;;2.10;1.90;;;;;;;;;;5099358;28;20213;-73
2023/09/07 05:01:18;;;;;;;4.93;2.97;;;;;;;;;;5099070;28;20225;-73
2023/09/07 05:03:46;;;;;;;3.40;2.30;;;;;;;;;;5098901;28;20210;-75
2023/09/07 05:06:14;;;;;;;3.97;2.47;;;;;;;;;;5099310;28;20210;-71
2023/09/07 05:08:44;;;;;;;3.07;2.40;;;;;;;;;;5098717;28;20241;-70
2023/09/07 05:11:12;;;;;;;3.40;2.40;;;;;;;;;;5098729;28;20231;-71
2023/09/07 05:13:40;;;;;;;3.40;2.60;;;;;;;;;;5099066;28;20260;-71
2023/09/07 05:16:08;;;;;;;2.53;2.33;;;;;;;;;;5097979;28;20227;-71
2023/09/07 05:18:36;;;;;;;6.63;2.43;;;;;;;;;;5096295;28;20617;-71
2023/09/07 05:21:11;;;;;;;3.40;2.47;;;;;;;;;;5098463;28;20628;-71
2023/09/07 05:23:40;;;;;;;2.77;2.57;;;;;;;;;;5098004;28;20613;-70
2023/09/07 05:26:09;;;;;;;4.07;2.83;;;;;;;;;;5098590;28;20270;-71
2023/09/07 05:28:37;;;;;;;4.33;2.77;;;;;;;;;;5098410;28;20213;-72
2023/09/07 05:31:05;;;;;;;2.57;2.30;;;;;;;;;;5098500;28;20229;-72
2023/09/07 05:33:33;;;;;;;2.83;2.40;;;;;;;;;;5097870;28;20568;-72
2023/09/07 05:36:02;;;;;;;3.17;2.27;;;;;;;;;;5098087;28;20237;-72
2023/09/07 05:38:30;;;;;;;2.97;2.53;;;;;;;;;;5098048;28;20212;-73
2023/09/07 05:41:01;;;;;;;5.03;2.83;;;;;;;;;;5098384;28;20235;-72
2023/09/07 05:43:30;;;;;;;3.37;2.60;;;;;;;;;;5098285;28;20218;-71
2023/09/07 05:45:58;;;;;;;4.20;2.83;;;;;;;;;;5098307;28;20202;-70
2023/09/07 05:48:26;;;;;;;3.17;2.30;;;;;;;;;;5096319;28;20603;-73
2023/09/07 05:50:54;;;;;;;3.33;2.30;;;;;;;;;;5102498;28;20225;-71
2023/09/07 05:53:24;;;;;;;5.60;2.50;;;;;;;;;;5102254;28;20205;-71
2023/09/07 05:55:52;;;;;;;4.23;2.40;;;;;;;;;;5095970;28;20210;-73
2023/09/07 05:58:20;;;;;;;2.93;2.30;;;;;;;;;;5094140;28;20226;-73
2023/09/07 06:00:51;;;;;;;4.37;2.20;;;;;;;;;;5096861;28;20242;-72
2023/09/07 06:03:19;;;;;;;4.97;2.40;;;;;;;;;;5090071;28;20199;-72
2023/09/07 06:05:48;;;;;;;3.23;2.53;;;;;;;;;;5085417;28;20234;-71
2023/09/07 06:08:16;;;;;;;5.13;3.70;;;;;;;;;;5104480;28;20206;-71
2023/09/07 06:10:44;;;;;;;5.20;2.97;;;;;;;;;;5097567;28;20227;-72
2023/09/07 06:13:12;;;;;;;2.77;2.53;;;;;;;;;;5097601;28;20208;-71
2023/09/07 06:15:40;;;;;;;4.00;2.73;;;;;;;;;;5097470;28;20563;-72
2023/09/07 06:18:14;;;;;;;4.57;2.47;;;;;;;;;;5098016;28;20544;-72
2023/09/07 06:20:43;;;;;;;4.00;2.33;;;;;;;;;;5097828;28;20306;-72
2023/09/07 06:23:11;;;;;;;5.63;2.60;;;;;;;;;;5097763;28;20257;-72
2023/09/07 06:25:39;;;;;;;4.83;2.90;;;;;;;;;;5097997;28;20561;-71
2023/09/07 06:28:07;;;;;;;3.17;2.67;;;;;;;;;;5095434;28;20195;-72
2023/09/07 06:30:35;;;;;;;2.90;2.60;;;;;;;;;;5097316;28;20652;-72
2023/09/07 06:33:04;;;;;;;3.40;2.53;;;;;;;;;;5097584;28;20202;-72
2023/09/07 06:35:34;;;;;;;2.63;2.43;;;;;;;;;;5097985;28;20233;-72
2023/09/07 06:38:02;;;;;;;4.37;2.97;;;;;;;;;;5097738;28;20207;-70
2023/09/07 06:40:30;;;;;;;2.97;2.50;;;;;;;;;;5094969;28;20286;-72
2023/09/07 06:43:04;;;;;;;4.50;2.90;;;;;;;;;;5094171;28;20553;-71
2023/09/07 06:45:35;;;;;;;4.03;2.57;;;;;;;;;;5101025;28;20634;-72
2023/09/07 06:48:03;;;;;;;2.87;2.63;;;;;;;;;;5101437;28;20211;-71
2023/09/07 06:50:31;;;;;;;3.67;2.40;;;;;;;;;;5101241;28;20228;-72
2023/09/07 06:53:02;;;;;;;21.53;5.73;;;;;;;;;;5101559;28;20218;-71
2023/09/07 06:55:30;;;;;;;7.90;2.80;;;;;;;;;;5101472;28;20234;-71
2023/09/07 06:58:01;;;;;;;6.17;2.27;;;;;;;;;;5093484;28;20304;-71
2023/09/07 07:00:29;;;;;;;5.73;2.77;;;;;;;;;;5103142;28;20650;-71
2023/09/07 07:02:58;;;;;;;7.50;3.00;;;;;;;;;;5101119;28;20618;-70
2023/09/07 07:05:29;;;;;;;3.80;2.47;;;;;;;;;;5088073;28;20209;-70
2023/09/07 07:07:57;;;;;;;5.93;2.57;;;;;;;;;;5101352;28;20208;-71
2023/09/07 07:10:27;;;;;;;7.37;2.40;;;;;;;;;;5101221;28;20226;-71
2023/09/07 07:12:55;;;;;;;3.37;2.20;;;;;;;;;;5101248;28;20310;-71
2023/09/07 07:15:23;;;;;;;3.53;2.40;;;;;;;;;;5101465;28;20263;-72
2023/09/07 07:17:52;;;;;;;3.67;2.33;;;;;;;;;;5100722;28;20211;-73
2023/09/07 07:20:20;;;;;;;6.63;2.70;;;;;;;;;;5100919;28;20594;-73
2023/09/07 07:22:48;;;;;;;4.83;2.60;;;;;;;;;;5100785;28;20295;-73
2023/09/07 07:25:17;;;;;;;4.33;2.93;;;;;;;;;;5100901;28;20238;-72
2023/09/07 07:27:47;;;;;;;5.57;2.97;;;;;;;;;;5098681;28;20205;-73
2023/09/07 07:30:15;;;;;;;3.97;3.00;;;;;;;;;;5092821;28;20225;-73
2023/09/07 07:32:43;;;;;;;3.93;2.77;;;;;;;;;;5103224;28;20262;-73
2023/09/07 07:35:11;;;;;;;3.33;2.57;;;;;;;;;;5108750;28;20208;-72
2023/09/07 07:37:39;;;;;;;3.07;2.33;;;;;;;;;;5100996;28;20251;-72
2023/09/07 07:40:08;;;;;;;3.40;2.47;;;;;;;;;;5097197;28;20697;-71
2023/09/07 07:42:36;;;;;;;3.20;2.20;;;;;;;;;;5090319;28;20210;-73
2023/09/07 07:45:06;;;;;;;3.07;2.77;;;;;;;;;;5093460;28;20562;-73
2023/09/07 07:47:34;;;;;;;10.57;2.70;;;;;;;;;;5100012;28;20287;-72
2023/09/07 07:50:03;;;;;;;3.30;2.53;;;;;;;;;;5105713;28;20231;-73
2023/09/07 07:52:31;;;;;;;5.93;2.90;;;;;;;;;;5107692;28;20213;-73
2023/09/07 07:54:59;;;;;;;2.97;2.50;;;;;;;;;;5099438;28;20205;-73
2023/09/07 07:57:27;;;;;;;5.47;2.50;;;;;;;;;;5099968;28;20761;-73
2023/09/07 07:59:56;;;;;;;3.57;2.93;;;;;;;;;;5100618;28;20225;-73
2023/09/07 08:02:26;;;;;;;4.43;2.67;;;;;;;;;;5100454;28;20288;-72
2023/09/07 08:04:54;;;;;;;4.50;2.60;;;;;;;;;;5100624;28;20212;-72
2023/09/07 08:07:22;;;;;;;6.37;3.10;;;;;;;;;;5107727;28;20204;-72
2023/09/07 08:09:51;;;;;;;2.60;2.40;;;;;;;;;;5100558;28;20236;-72
2023/09/07 08:12:19;;;;;;;5.15;2.42;;;;;;;;;;5100390;28;20241;-72
2023/09/07 08:14:47;;;;;;;3.35;3.00;;;;;;;;;;5100395;28;20208;-72
2023/09/07 08:17:15;;;;;;;4.35;2.55;;;;;;;;;;5100199;28;20589;-72
2023/09/07 08:19:48;;;;;;;8.02;2.38;;;;;;;;;;5099969;28;20548;-72
2023/09/07 08:22:16;;;;;;;3.93;2.80;;;;;;;;;;5099834;28;20579;-72
2023/09/07 08:24:46;;;;;;;4.28;2.55;;;;;;;;;;5100390;28;20287;-72
2023/09/07 08:27:18;;;;;;;4.53;2.42;;;;;;;;;;5099667;28;20228;-72
2023/09/07 08:29:51;;;;;;;3.40;2.50;;;;;;;;;;5099873;28;20213;-72
2023/09/07 08:32:19;;;;;;;3.10;2.75;;;;;;;;;;5095529;28;20202;-72
2023/09/07 08:34:56;;;;;;;4.63;2.63;;;;;;;;;;5099552;28;20232;-72
2023/09/07 08:37:24;;;;;;;5.43;2.63;;;;;;;;;;5099433;28;20232;-72
2023/09/07 08:39:54;;;;;;;3.42;2.72;;;;;;;;;;5099425;28;20201;-72
2023/09/07 08:42:22;;;;;;;6.07;2.60;;;;;;;;;;5099733;28;20657;-72
2023/09/07 08:44:51;;;;;;;3.67;2.60;;;;;;;;;;5091632;28;20209;-72
2023/09/07 08:47:21;;;;;;;2.83;2.47;;;;;;;;;;5095318;28;20208;-72
2023/09/07 08:49:50;;;;;;;4.07;2.30;;;;;;;;;;5091366;28;20658;-72
2023/09/07 08:52:18;;;;;;;3.25;2.25;;;;;;;;;;5094655;28;20206;-74
2023/09/07 08:54:47;;;;;;;3.35;2.53;;;;;;;;;;5099069;28;20291;-72
2023/09/07 08:57:16;;;;;;;5.32;2.35;;;;;;;;;;5097538;28;20242;-71
2023/09/07 08:59:44;;;;;;;3.58;2.55;;;;;;;;;;5104327;28;20232;-72
2023/09/07 09:02:12;;;;;;;2.65;2.45;;;;;;;;;;5092600;28;20285;-71
2023/09/07 09:04:40;;;;;;;3.83;2.45;;;;;;;;;;5096858;28;20210;-72
2023/09/07 09:07:09;;;;;;;2.75;2.40;;;;;;;;;;5098700;28;20206;-71
2023/09/07 09:09:38;;;;;;;3.60;2.55;;;;;;;;;;5098689;28;20607;-68
2023/09/07 09:12:09;;;;;;;2.80;2.42;;;;;;;;;;5098943;28;20214;-69
2023/09/07 09:14:37;;;;;;;2.33;2.13;;;;;;;;;;5094877;28;20211;-69
2023/09/07 09:17:05;;;;;;;2.40;2.08;;;;;;;;;;5098277;28;20592;-69
2023/09/07 09:19:34;;;;;;;2.70;2.40;;;;;;;;;;5098718;28;20240;-69
2023/09/07 09:22:03;;;;;;;3.92;2.95;;;;;;;;;;5098466;28;20231;-68
2023/09/07 09:24:35;;;;;;;3.38;2.47;;;;;;;;;;5098798;28;20204;-69
2023/09/07 09:27:03;;;;;;;3.50;2.38;;;;;;;;;;5098596;28;20214;-70
2023/09/07 09:29:34;;;;;;;5.05;2.47;;;;;;;;;;5097581;28;20226;-69
2023/09/07 09:32:04;;;;;;;3.40;2.50;;;;;;;;;;5086427;28;20211;-72
2023/09/07 09:34:33;;;;;;;4.45;2.55;;;;;;;;;;5097855;28;20651;-70
2023/09/07 09:37:03;;;;;;;3.00;2.38;;;;;;;;;;5097903;28;20710;-70
2023/09/07 09:39:31;;;;;;;2.17;2.03;;;;;;;;;;5097749;28;20645;-70
2023/09/07 09:42:04;;;;;;;3.95;2.58;;;;;;;;;;5097020;28;20197;-69
2023/09/07 09:44:33;;;;;;;2.60;2.40;;;;;;;;;;5098144;28;20212;-71
2023/09/07 09:47:01;;;;;;;3.20;2.70;;;;;;;;;;5096175;28;20254;-70
2023/09/07 09:49:30;;;;;;;2.95;2.30;;;;;;;;;;5088418;28;20210;-71
2023/09/07 09:51:58;;;;;;;2.88;2.25;;;;;;;;;;5097623;28;20283;-73
2023/09/07 09:54:27;;;;;;;4.82;2.83;;;;;;;;;;5098205;28;20665;-73
2023/09/07 09:56:55;;;;;;;6.68;4.63;;;;;;;;;;5097982;28;20643;-74
2023/09/07 09:59:24;;;;;;;4.72;3.38;;;;;;;;;;5098335;28;20213;-71
2023/09/07 10:01:54;;;;;;;5.07;4.47;;;;;;;;;;5097890;28;20228;-73
2023/09/07 10:04:23;;;;;;;6.15;3.33;;;;;;;;;;5098214;28;20362;-75
2023/09/07 10:06:51;;;;;;;10.55;3.75;;;;;;;;;;5098123;28;20307;-74
2023/09/07 10:09:20;;;;;;;6.70;5.30;;;;;;;;;;5098052;28;20201;-75
2023/09/07 10:11:52;;;;;;;4.97;4.55;;;;;;;;;;5098106;28;20225;-74
2023/09/07 10:14:20;;;;;;;6.15;5.55;;;;;;;;;;5098223;28;20208;-75
2023/09/07 10:16:51;;;;;;;4.18;2.97;;;;;;;;;;5097785;28;20213;-75
2023/09/07 10:19:20;;;;;;;3.58;2.88;;;;;;;;;;5097179;28;20570;-77
2023/09/07 10:21:49;;;;;;;6.13;2.47;;;;;;;;;;5097978;28;20222;-76
2023/09/07 10:24:26;;;;;;;5.00;3.47;;;;;;;;;;5097826;28;20217;-77
2023/09/07 10:26:58;;;;;;;4.65;3.78;;;;;;;;;;5097689;28;20570;-78
2023/09/07 10:29:27;;;;;;;3.15;2.85;;;;;;;;;;5087078;28;20732;-77
2023/09/07 10:31:57;;;;;;;5.30;2.60;;;;;;;;;;5097592;28;20266;-71
2023/09/07 10:34:35;;;;;;;3.65;2.35;;;;;;;;;;5097702;28;20235;-72
2023/09/07 10:37:04;;;;;;;2.92;2.35;;;;;;;;;;5097599;28;20205;-74
2023/09/07 10:39:32;;;;;;;5.28;2.33;;;;;;;;;;5097545;28;20201;-74
2023/09/07 10:42:00;;;;;;;3.22;2.55;;;;;;;;;;5097743;28;20212;-72
2023/09/07 10:44:31;;;;;;;3.15;2.35;;;;;;;;;;5097828;28;20209;-74
2023/09/07 10:47:00;;;;;;;6.70;2.88;;;;;;;;;;5097152;28;20667;-72
2023/09/07 10:49:29;;;;;;;2.53;2.15;;;;;;;;;;5097483;28;20312;-72
2023/09/07 10:51:57;;;;;;;2.40;2.20;;;;;;;;;;5097489;28;20233;-73
2023/09/07 10:54:25;;;;;;;6.90;2.95;;;;;;;;;;5097476;28;20213;-73
2023/09/07 10:56:57;;;;;;;3.65;3.28;;;;;;;;;;5097433;28;20246;-73
2023/09/07 10:59:28;;;;;;;2.40;2.08;;;;;;;;;;5084112;28;20229;-72
2023/09/07 11:02:04;;;;;;;2.67;2.47;;;;;;;;;;5096981;28;20589;-73
2023/09/07 11:04:33;;;;;;;2.65;2.45;;;;;;;;;;5092178;28;20563;-72
2023/09/07 11:07:02;;;;;;;4.18;2.47;;;;;;;;;;5086163;28;20293;-72
2023/09/07 11:09:32;;;;;;;3.95;2.53;;;;;;;;;;5097595;28;20367;-72
2023/09/07 11:12:05;;;;;;;4.53;2.40;;;;;;;;;;5097530;28;20247;-72
2023/09/07 11:14:33;;;;;;;3.53;2.45;;;;;;;;;;5097675;28;20288;-73
2023/09/07 11:17:03;;;;;;;4.15;2.47;;;;;;;;;;5096927;28;20288;-72
2023/09/07 11:19:36;;;;;;;3.75;3.15;;;;;;;;;;5097503;28;20235;-73
2023/09/07 11:22:04;;;;;;;2.60;2.40;;;;;;;;;;5097268;28;20210;-72
2023/09/07 11:24:33;;;;;;;3.72;2.70;;;;;;;;;;5097103;28;20699;-73
2023/09/07 11:27:02;;;;;;;6.03;2.90;;;;;;;;;;5096984;28;20695;-72
2023/09/07 11:29:32;;;;;;;2.92;2.72;;;;;;;;;;5098016;28;20205;-72
2023/09/07 11:32:06;;;;;;;2.50;2.30;;;;;;;;;;5100567;28;20205;-72
2023/09/07 11:34:36;;;;;;;2.28;2.13;;;;;;;;;;5101082;28;20200;-72
2023/09/07 11:37:04;;;;;;;5.32;2.65;;;;;;;;;;5101064;28;20205;-72
2023/09/07 11:39:32;;;;;;;4.07;2.85;;;;;;;;;;5100630;28;20232;-72
2023/09/07 11:42:00;;;;;;;2.80;2.30;;;;;;;;;;5101080;28;20205;-72
2023/09/07 11:44:28;;;;;;;7.50;2.72;;;;;;;;;;5100753;28;20213;-72
2023/09/07 11:46:56;;;;;;;3.25;2.17;;;;;;;;;;5100631;28;20213;-72
2023/09/07 11:49:24;;;;;;;2.88;2.53;;;;;;;;;;5100820;28;20197;-72
2023/09/07 11:51:54;;;;;;;3.30;3.00;;;;;;;;;;5100942;28;20225;-73
2023/09/07 11:54:22;;;;;;;3.92;2.40;;;;;;;;;;5100588;28;20205;-73
2023/09/07 11:56:50;;;;;;;3.95;2.63;;;;;;;;;;5100256;28;20237;-73
2023/09/07 11:59:18;;;;;;;4.65;2.70;;;;;;;;;;5100539;28;20229;-73
2023/09/07 12:01:46;;;;;;;2.88;2.58;;;;;;;;;;5100134;28;20727;-72
2023/09/07 12:04:15;;;;;;;3.75;2.78;;;;;;;;;;5100404;28;20220;-72
2023/09/07 12:06:43;;;;;;;2.50;2.30;;;;;;;;;;5100174;28;20206;-72
2023/09/07 12:09:12;;;;;;;2.40;2.20;;;;;;;;;;5100263;28;20205;-72
2023/09/07 12:11:41;;;;;;;3.05;2.40;;;;;;;;;;5099898;28;20638;-72
2023/09/07 12:14:10;;;;;;;2.60;2.15;;;;;;;;;;5100009;28;20208;-72
2023/09/07 12:16:38;;;;;;;2.92;2.70;;;;;;;;;;5100173;28;20237;-72
2023/09/07 12:19:06;;;;;;;4.40;2.72;;;;;;;;;;5099747;28;20247;-72
2023/09/07 12:21:34;;;;;;;6.43;2.28;;;;;;;;;;5099668;28;20265;-72
2023/09/07 12:24:02;;;;;;;4.68;2.38;;;;;;;;;;5099934;28;20267;-72
2023/09/07 12:26:31;;;;;;;3.72;2.70;;;;;;;;;;5099723;28;20325;-72
2023/09/07 12:29:00;;;;;;;2.60;2.42;;;;;;;;;;5100172;28;20546;-73
2023/09/07 12:31:28;;;;;;;2.60;2.40;;;;;;;;;;5099658;28;20661;-72
2023/09/07 12:33:56;;;;;;;2.97;2.55;;;;;;;;;;5099809;28;20213;-72
2023/09/07 12:36:24;;;;;;;2.65;2.45;;;;;;;;;;5099557;28;20575;-73
2023/09/07 12:38:53;;;;;;;3.22;2.88;;;;;;;;;;5099240;28;20784;-73
2023/09/07 12:41:21;;;;;;;3.65;2.72;;;;;;;;;;5098987;28;20221;-72
2023/09/07 12:43:52;;;;;;;3.58;2.70;;;;;;;;;;5099326;28;20209;-72
2023/09/07 12:46:20;;;;;;;2.78;2.53;;;;;;;;;;5087497;28;20695;-72
2023/09/07 12:48:48;;;;;;;2.78;2.53;;;;;;;;;;5099263;28;20288;-72
2023/09/07 12:51:16;;;;;;;4.72;2.92;;;;;;;;;;5099250;28;20685;-72
2023/09/07 12:53:45;;;;;;;3.70;2.58;;;;;;;;;;5099126;28;20303;-73
2023/09/07 12:56:13;;;;;;;2.50;2.30;;;;;;;;;;5099176;28;20201;-73
2023/09/07 12:58:44;;;;;;;2.55;2.35;;;;;;;;;;5098962;28;20237;-72
2023/09/07 13:01:15;;;;;;;4.13;2.47;;;;;;;;;;5099406;28;20229;-74
2023/09/07 13:03:43;;;;;;;4.28;2.60;;;;;;;;;;5099008;28;20205;-73
2023/09/07 13:06:17;;;;;;;3.08;2.47;;;;;;;;;;5098438;28;20213;-73
2023/09/07 13:08:45;;;;;;;3.28;2.83;;;;;;;;;;5086045;28;20212;-72
2023/09/07 13:11:13;;;;;;;4.70;2.85;;;;;;;;;;5098705;28;20231;-72
2023/09/07 13:13:41;;;;;;;11.23;3.33;;;;;;;;;;5099276;28;20259;-72
2023/09/07 13:16:09;;;;;;;5.65;3.20;;;;;;;;;;5098980;28;20243;-71
2023/09/07 13:18:39;;;;;;;4.38;3.00;;;;;;;;;;5098479;28;20270;-72
2023/09/07 13:21:07;;;;;;;3.72;2.95;;;;;;;;;;5098602;28;20712;-73
2023/09/07 13:23:35;;;;;;;4.28;2.70;;;;;;;;;;5098483;28;20205;-73
2023/09/07 13:26:03;;;;;;;6.97;2.63;;;;;;;;;;5098732;28;20220;-72
2023/09/07 13:28:31;;;;;;;5.63;2.80;;;;;;;;;;5095694;28;20201;-72
2023/09/07 13:31:00;;;;;;;4.45;2.90;;;;;;;;;;5090183;28;20312;-73
2023/09/07 13:33:29;;;;;;;3.38;2.40;;;;;;;;;;5097775;28;20213;-73
2023/09/07 13:35:59;;;;;;;6.22;2.80;;;;;;;;;;5091544;28;20206;-71
2023/09/07 13:38:27;;;;;;;3.90;3.00;;;;;;;;;;5097093;28;20239;-73
2023/09/07 13:40:56;;;;;;;5.90;3.50;;;;;;;;;;5099309;28;20712;-72
2023/09/07 13:43:24;;;;;;;6.88;3.63;;;;;;;;;;5098632;28;20213;-73
2023/09/07 13:45:52;;;;;;;6.72;3.58;;;;;;;;;;5098165;28;20209;-70
2023/09/07 13:48:20;;;;;;;5.57;3.15;;;;;;;;;;5097534;28;20201;-71
2023/09/07 13:50:48;;;;;;;7.60;6.50;;;;;;;;;;5097237;28;20213;-72
2023/09/07 13:53:17;;;;;;;5.22;3.15;;;;;;;;;;5094621;28;20645;-74
2023/09/07 13:55:46;;;;;;;6.53;4.57;;;;;;;;;;5097371;28;20194;-73
2023/09/07 13:58:15;;;;;;;5.43;3.72;;;;;;;;;;5097198;28;20229;-71
2023/09/07 14:00:43;;;;;;;6.05;3.50;;;;;;;;;;5097832;28;20221;-72
2023/09/07 14:03:11;;;;;;;3.42;3.15;;;;;;;;;;5097515;28;20197;-72
2023/09/07 14:05:40;;;;;;;3.40;3.10;;;;;;;;;;5097611;28;20212;-72
2023/09/07 14:08:07;;;;;;;5.82;5.35;;;;;;;;;;5097780;28;20200;-72
2023/09/07 14:10:37;;;;;;;6.75;5.15;;;;;;;;;;5097720;28;20213;-72
2023/09/07 14:13:05;;;;;;;5.15;3.45;;;;;;;;;;5095475;28;20197;-73
2023/09/07 14:15:33;;;;;;;4.65;3.47;;;;;;;;;;5097817;28;20657;-72
2023/09/07 14:18:02;;;;;;;5.10;3.28;;;;;;;;;;5097938;28;20292;-73
2023/09/07 14:20:30;;;;;;;5.70;5.15;;;;;;;;;;5097631;28;20229;-73
2023/09/07 14:23:00;;;;;;;3.50;3.20;;;;;;;;;;5098423;28;20201;-73
2023/09/07 14:25:28;;;;;;;4.95;3.50;;;;;;;;;;5098051;28;20205;-73
2023/09/07 14:27:58;;;;;;;5.50;3.42;;;;;;;;;;5097219;28;20209;-73
2023/09/07 14:30:26;;;;;;;4.32;3.75;;;;;;;;;;5096147;28;20220;-73
2023/09/07 14:32:54;;;;;;;4.38;2.92;;;;;;;;;;5095647;28;20209;-73
2023/09/07 14:35:22;;;;;;;3.60;3.22;;;;;;;;;;5088758;28;20585;-74
2023/09/07 14:37:52;;;;;;;5.03;3.30;;;;;;;;;;5097539;28;20216;-73
2023/09/07 14:40:21;;;;;;;3.58;2.97;;;;;;;;;;5097614;28;20229;-73
2023/09/07 14:42:50;;;;;;;5.45;3.33;;;;;;;;;;5097641;28;20209;-73
2023/09/07 14:45:19;;;;;;;5.10;3.03;;;;;;;;;;5097715;28;20205;-73
2023/09/07 14:47:49;;;;;;;7.22;3.30;;;;;;;;;;5097240;28;20258;-73
2023/09/07 14:50:17;;;;;;;3.53;3.22;;;;;;;;;;5097654;28;20220;-73
2023/09/07 14:52:47;;;;;;;4.10;3.30;;;;;;;;;;5097551;28;20255;-73